HUAL Seoul — LADO6 — position and weather

sailwx.info

Track history (hours):
 
Tides and Currents Weather Stations Pressure Air Temp Water Temp Dewpoint Dewpoint Depression Visibility Wind Speed Wind Dir Waves Ship Positions

HUAL Seoul

Last reported at 2014-Nov-24 01:19 UTC. Time now 2014-Nov-28 21:41 UTC.
Position N 34°04' E 032°41'.

Type: Cargo ship. MMSI: 257496000.

Date/timePositionNaut miles runAvg speedWind from/ knotsBaromVisibWave heightAir tempDewpointWater temp
2014-Nov-24 01:19N 34°04' E 032°41'86617.7
2014-Nov-22 00:32N 36°15' E 015°14'1818.2
2014-Nov-21 23:33N 36°20' E 014°53'1818.1
2014-Nov-21 22:33N 36°25' E 014°31'1818.2
2014-Nov-21 21:33N 36°30' E 014°09'1818.1
2014-Nov-21 20:32N 36°35' E 013°47'1918.0
2014-Nov-21 19:28N 36°41' E 013°24'1918.2
2014-Nov-21 18:25N 36°46' E 013°01'1818.4
2014-Nov-21 17:27N 36°51' E 012°40'1618.0
2014-Nov-21 16:33N 36°56' E 012°21'9118.1
2014-Nov-21 11:32N 37°32' E 010°36'4118.9
2014-Nov-21 09:21N 37°30' E 009°44'1519.1
2014-Nov-21 08:33N 37°26' E 009°26'1918.9
2014-Nov-21 07:34N 37°21' E 009°03'2218.6
2014-Nov-21 06:22N 37°20' E 008°35'3418.6
2014-Nov-21 04:32N 37°20' E 007°52'1817.9
2014-Nov-21 03:33N 37°20' E 007°30'1917.9
2014-Nov-21 02:29N 37°20' E 007°06'5152.5
2014-Nov-21 01:30N 37°20' E 006°01'12 9.7
2014-Nov-21 00:17N 37°20' E 006°16'2018.4
2014-Nov-20 23:13N 37°20' E 005°51'3118.3
2014-Nov-20 21:32N 37°18' E 005°13'1918.6
2014-Nov-20 20:30N 37°15' E 004°49'1818.5
2014-Nov-20 19:33N 37°13' E 004°27'1918.4
2014-Nov-20 18:31N 37°10' E 004°03'7818.8
2014-Nov-20 14:24N 36°58' E 002°27'7919.2
2014-Nov-20 10:16N 36°44' E 000°50'1318.6
2014-Nov-20 09:33N 36°42' E 000°33'1818.4
2014-Nov-20 08:33N 36°39' E 000°11'26218.4
2014-Nov-19 18:19N 35°60' W 005°10'1519.5
2014-Nov-19 17:33N 35°57' W 005°28'91418.3
2014-Nov-17 15:31N 39°05' W 024°16'4418.6
2014-Nov-17 13:08N 39°13' W 025°13'10418.6
2014-Nov-17 07:33N 39°33' W 027°25'1918.8
2014-Nov-17 06:33N 39°36' W 027°48'1918.9
2014-Nov-17 05:33N 39°39' W 028°13'1918.6
2014-Nov-17 04:34N 39°43' W 028°36'1818.4
2014-Nov-17 03:33N 39°46' W 028°60'1918.6
2014-Nov-17 02:33N 39°50' W 029°24'1918.7
2014-Nov-17 01:33N 39°53' W 029°48'1818.4
2014-Nov-17 00:33N 39°55' W 030°11'2118.5
2014-Nov-16 23:24N 39°55' W 030°39'1718.7
2014-Nov-16 22:30N 39°55' W 031°01'1818.6
2014-Nov-16 21:33N 39°55' W 031°24'1918.6
2014-Nov-16 20:33N 39°55' W 031°48'1918.7
2014-Nov-16 19:33N 39°55' W 032°13'4318.5
2014-Nov-16 17:13N 39°55' W 033°09'5218.8
2014-Nov-16 14:27N 39°55' W 034°17'2018.7
2014-Nov-16 13:23N 39°55' W 034°43'1818.7
2014-Nov-16 12:27N 39°55' W 035°06'  
Track history (hours):
 
Tides and Currents Weather Stations Pressure Air Temp Water Temp Dewpoint Dewpoint Depression Visibility Wind Speed Wind Dir Waves Ship Positions

HUAL Seoul

Last reported at 2014-Nov-24 01:19 UTC. Time now 2014-Nov-28 21:41 UTC.
Position N 34°04' E 032°41'.

Type: Cargo ship. MMSI: 257496000.

Date/timePositionNaut miles runAvg speedWind from/ knotsBaromVisibWave heightAir tempDewpointWater temp
2014-Nov-24 01:19N 34°04' E 032°41'86617.7
2014-Nov-22 00:32N 36°15' E 015°14'1818.2
2014-Nov-21 23:33N 36°20' E 014°53'1818.1
2014-Nov-21 22:33N 36°25' E 014°31'1818.2
2014-Nov-21 21:33N 36°30' E 014°09'1818.1
2014-Nov-21 20:32N 36°35' E 013°47'1918.0
2014-Nov-21 19:28N 36°41' E 013°24'1918.2
2014-Nov-21 18:25N 36°46' E 013°01'1818.4
2014-Nov-21 17:27N 36°51' E 012°40'1618.0
2014-Nov-21 16:33N 36°56' E 012°21'9118.1
2014-Nov-21 11:32N 37°32' E 010°36'4118.9
2014-Nov-21 09:21N 37°30' E 009°44'1519.1
2014-Nov-21 08:33N 37°26' E 009°26'1918.9
2014-Nov-21 07:34N 37°21' E 009°03'2218.6
2014-Nov-21 06:22N 37°20' E 008°35'3418.6
2014-Nov-21 04:32N 37°20' E 007°52'1817.9
2014-Nov-21 03:33N 37°20' E 007°30'1917.9
2014-Nov-21 02:29N 37°20' E 007°06'5152.5
2014-Nov-21 01:30N 37°20' E 006°01'12 9.7
2014-Nov-21 00:17N 37°20' E 006°16'2018.4
2014-Nov-20 23:13N 37°20' E 005°51'3118.3
2014-Nov-20 21:32N 37°18' E 005°13'1918.6
2014-Nov-20 20:30N 37°15' E 004°49'1818.5
2014-Nov-20 19:33N 37°13' E 004°27'1918.4
2014-Nov-20 18:31N 37°10' E 004°03'7818.8
2014-Nov-20 14:24N 36°58' E 002°27'7919.2
2014-Nov-20 10:16N 36°44' E 000°50'1318.6
2014-Nov-20 09:33N 36°42' E 000°33'1818.4
2014-Nov-20 08:33N 36°39' E 000°11'26218.4
2014-Nov-19 18:19N 35°60' W 005°10'1519.5
2014-Nov-19 17:33N 35°57' W 005°28'91418.3
2014-Nov-17 15:31N 39°05' W 024°16'4418.6
2014-Nov-17 13:08N 39°13' W 025°13'10418.6
2014-Nov-17 07:33N 39°33' W 027°25'1918.8
2014-Nov-17 06:33N 39°36' W 027°48'1918.9
2014-Nov-17 05:33N 39°39' W 028°13'1918.6
2014-Nov-17 04:34N 39°43' W 028°36'1818.4
2014-Nov-17 03:33N 39°46' W 028°60'1918.6
2014-Nov-17 02:33N 39°50' W 029°24'1918.7
2014-Nov-17 01:33N 39°53' W 029°48'1818.4
2014-Nov-17 00:33N 39°55' W 030°11'2118.5
2014-Nov-16 23:24N 39°55' W 030°39'1718.7
2014-Nov-16 22:30N 39°55' W 031°01'1818.6
2014-Nov-16 21:33N 39°55' W 031°24'1918.6
2014-Nov-16 20:33N 39°55' W 031°48'1918.7
2014-Nov-16 19:33N 39°55' W 032°13'4318.5
2014-Nov-16 17:13N 39°55' W 033°09'5218.8
2014-Nov-16 14:27N 39°55' W 034°17'2018.7
2014-Nov-16 13:23N 39°55' W 034°43'1818.7
2014-Nov-16 12:27N 39°55' W 035°06'  

Dump ship's entire track history